createdAt,value
2018-12-12T00:01:01.238Z,0
2018-12-12T00:02:09.314Z,0
2018-12-12T00:03:17.328Z,0
2018-12-12T00:04:25.362Z,0
2018-12-12T00:05:33.437Z,0
2018-12-12T00:06:41.489Z,0
2018-12-12T00:07:49.550Z,0
2018-12-12T00:08:57.594Z,0
2018-12-12T00:10:05.617Z,0
2018-12-12T00:11:13.694Z,0
2018-12-12T00:12:21.742Z,0
2018-12-12T00:13:29.800Z,0
2018-12-12T00:14:37.842Z,0
2018-12-12T00:15:45.890Z,0
2018-12-12T00:16:53.948Z,0
2018-12-12T00:18:02.012Z,0
2018-12-12T00:19:10.055Z,0
2018-12-12T00:20:18.085Z,0
2018-12-12T00:21:26.144Z,0
2018-12-12T00:22:34.203Z,0
2018-12-12T00:23:42.259Z,0
2018-12-12T00:24:50.298Z,0
2018-12-12T00:25:58.349Z,0
2018-12-12T00:27:06.408Z,0
2018-12-12T00:28:14.453Z,0
2018-12-12T00:29:22.514Z,0
2018-12-12T00:30:30.552Z,0
2018-12-12T00:31:38.598Z,0
2018-12-12T00:32:46.643Z,0
2018-12-12T00:33:54.706Z,0
2018-12-12T00:35:02.758Z,0
2018-12-12T00:36:10.801Z,0
2018-12-12T00:37:18.864Z,0
2018-12-12T00:38:26.906Z,0
2018-12-12T00:39:34.945Z,0
2018-12-12T00:40:43.011Z,0
2018-12-12T00:41:51.060Z,0
2018-12-12T00:42:59.110Z,0
2018-12-12T00:44:07.158Z,0
2018-12-12T00:45:15.173Z,0
2018-12-12T00:46:23.257Z,0
2018-12-12T00:47:31.321Z,0
2018-12-12T00:48:39.374Z,0
2018-12-12T00:49:47.415Z,0
2018-12-12T00:50:55.437Z,0
2018-12-12T00:52:03.520Z,0
2018-12-12T00:53:11.558Z,0
2018-12-12T00:54:19.616Z,0
2018-12-12T00:55:27.661Z,0
2018-12-12T00:56:35.715Z,0
2018-12-12T00:57:43.772Z,0
2018-12-12T00:58:51.816Z,0
2018-12-12T00:59:59.866Z,0
2018-12-12T01:01:07.933Z,0
2018-12-12T01:02:15.956Z,0
2018-12-12T01:03:24.026Z,0
2018-12-12T01:04:32.073Z,0
2018-12-12T01:05:40.116Z,0
2018-12-12T01:06:48.183Z,0
2018-12-12T01:07:56.223Z,0
2018-12-12T01:09:04.267Z,0
2018-12-12T01:10:12.317Z,0
2018-12-12T01:11:20.418Z,0
2018-12-12T01:12:28.448Z,0
2018-12-12T01:13:36.467Z,0
2018-12-12T01:14:44.522Z,0
2018-12-12T01:15:52.581Z,0
2018-12-12T01:17:00.644Z,0
2018-12-12T01:18:08.688Z,0
2018-12-12T01:19:16.731Z,0
2018-12-12T01:20:24.771Z,0
2018-12-12T01:21:32.835Z,0
2018-12-12T01:22:40.889Z,0
2018-12-12T01:23:48.936Z,0
2018-12-12T01:24:56.987Z,0
2018-12-12T01:26:05.015Z,0
2018-12-12T01:27:13.089Z,0
2018-12-12T01:28:21.146Z,0
2018-12-12T01:29:29.187Z,0
2018-12-12T01:30:37.235Z,0
2018-12-12T01:31:45.285Z,0
2018-12-12T01:32:53.341Z,0
2018-12-12T01:34:01.395Z,0
2018-12-12T01:35:09.449Z,0
2018-12-12T01:36:17.497Z,0
2018-12-12T01:37:25.535Z,0
2018-12-12T01:38:33.595Z,0
2018-12-12T01:39:41.643Z,0
2018-12-12T01:40:49.707Z,0
2018-12-12T01:41:57.753Z,0
2018-12-12T01:43:05.790Z,0
2018-12-12T01:44:13.846Z,0
2018-12-12T01:45:21.901Z,0
2018-12-12T01:46:29.945Z,0
2018-12-12T01:47:37.999Z,0
2018-12-12T01:48:46.050Z,0
2018-12-12T01:49:54.137Z,0
2018-12-12T01:51:02.155Z,0
2018-12-12T01:52:10.190Z,0
2018-12-12T01:53:18.263Z,0
2018-12-12T01:54:26.303Z,0
2018-12-12T01:55:34.361Z,0
2018-12-12T01:56:42.404Z,0
2018-12-12T01:57:50.479Z,0
2018-12-12T01:58:58.514Z,0
2018-12-12T02:00:06.550Z,0
2018-12-12T02:01:14.608Z,0
2018-12-12T02:02:22.678Z,0
2018-12-12T02:03:30.732Z,0
2018-12-12T02:04:38.762Z,0
2018-12-12T02:05:46.814Z,0
2018-12-12T02:06:54.856Z,0
2018-12-12T02:08:02.922Z,0
2018-12-12T02:09:10.962Z,0
2018-12-12T02:10:19.012Z,0
2018-12-12T02:11:27.063Z,0
2018-12-12T02:12:35.098Z,0
2018-12-12T02:13:43.168Z,0
2018-12-12T02:14:51.223Z,0
2018-12-12T02:15:59.277Z,0
2018-12-12T02:17:07.316Z,0
2018-12-12T02:18:15.388Z,0
2018-12-12T02:19:23.452Z,0
2018-12-12T02:20:31.482Z,0
2018-12-12T02:21:39.526Z,0
2018-12-12T02:22:47.557Z,0
2018-12-12T02:23:55.613Z,0
2018-12-12T02:25:03.695Z,0
2018-12-12T02:26:11.734Z,0
2018-12-12T02:27:19.780Z,0
2018-12-12T02:28:27.845Z,0
2018-12-12T02:29:35.871Z,0
2018-12-12T02:30:43.925Z,0
2018-12-12T02:31:51.980Z,0
2018-12-12T02:33:00.030Z,0
2018-12-12T02:34:08.077Z,0
2018-12-12T02:35:16.152Z,0
2018-12-12T02:36:24.189Z,0
2018-12-12T02:37:32.225Z,0
2018-12-12T02:38:40.290Z,0
2018-12-12T02:39:48.336Z,0
2018-12-12T02:40:56.401Z,0
2018-12-12T02:42:04.442Z,0
2018-12-12T02:43:12.478Z,0
2018-12-12T02:44:20.540Z,0
2018-12-12T02:45:28.587Z,0
2018-12-12T02:46:36.652Z,0
2018-12-12T02:47:44.685Z,0
2018-12-12T02:48:52.754Z,0
2018-12-12T02:50:00.796Z,0
2018-12-12T02:51:08.828Z,0
2018-12-12T02:52:16.900Z,0
2018-12-12T02:53:24.929Z,0
2018-12-12T02:54:32.994Z,0
2018-12-12T02:55:41.037Z,0
2018-12-12T02:56:49.102Z,0
2018-12-12T02:57:57.159Z,0
2018-12-12T02:59:05.189Z,0
2018-12-12T03:00:13.245Z,0
2018-12-12T03:01:21.292Z,0
2018-12-12T03:02:29.358Z,0
2018-12-12T03:03:37.421Z,0
2018-12-12T03:04:45.430Z,0
2018-12-12T03:05:53.502Z,0
2018-12-12T03:07:01.547Z,0
2018-12-12T03:08:09.596Z,0
2018-12-12T03:09:17.639Z,0
2018-12-12T03:10:25.692Z,0
2018-12-12T03:11:33.746Z,0
2018-12-12T03:12:41.811Z,0
2018-12-12T03:13:49.839Z,0
2018-12-12T03:14:57.908Z,0
2018-12-12T03:16:05.943Z,0
2018-12-12T03:17:14.016Z,0
2018-12-12T03:18:22.059Z,0
2018-12-12T03:19:30.090Z,0
2018-12-12T03:20:38.158Z,0
2018-12-12T03:21:46.213Z,0
2018-12-12T03:22:54.255Z,0
2018-12-12T03:24:02.311Z,0
2018-12-12T03:25:10.379Z,0
2018-12-12T03:26:18.418Z,0
2018-12-12T03:27:26.459Z,0
2018-12-12T03:28:34.514Z,0
2018-12-12T03:29:42.576Z,0
2018-12-12T03:30:50.619Z,0
2018-12-12T03:31:58.663Z,0
2018-12-12T03:33:06.711Z,0
2018-12-12T03:34:14.752Z,0
2018-12-12T03:35:22.832Z,0
2018-12-12T03:36:30.874Z,0
2018-12-12T03:37:38.911Z,0
2018-12-12T03:38:46.967Z,0
2018-12-12T03:39:55.003Z,0
2018-12-12T03:41:03.049Z,0
2018-12-12T03:42:11.136Z,0
2018-12-12T03:43:19.176Z,0
2018-12-12T03:44:27.217Z,0
2018-12-12T03:45:35.245Z,0
2018-12-12T03:46:43.313Z,0
2018-12-12T03:47:51.366Z,0
2018-12-12T03:48:59.415Z,0
2018-12-12T03:50:07.467Z,0
2018-12-12T03:51:15.499Z,0
2018-12-12T03:52:23.578Z,0
2018-12-12T03:53:31.640Z,0
2018-12-12T03:54:39.677Z,0
2018-12-12T03:55:47.738Z,0
2018-12-12T03:56:55.755Z,0
2018-12-12T03:58:03.819Z,0
2018-12-12T03:59:11.869Z,0
2018-12-12T04:00:19.925Z,0
2018-12-12T04:01:27.984Z,0
2018-12-12T04:02:36.022Z,0
2018-12-12T04:03:44.076Z,0
2018-12-12T04:04:52.117Z,0
2018-12-12T04:06:00.179Z,0
2018-12-12T04:07:08.232Z,0
2018-12-12T04:08:16.316Z,0
2018-12-12T04:09:24.350Z,0
2018-12-12T04:10:32.386Z,0
2018-12-12T04:11:40.439Z,0
2018-12-12T04:12:48.496Z,0
2018-12-12T04:13:56.547Z,0
2018-12-12T04:15:04.584Z,0
2018-12-12T04:16:12.653Z,0
2018-12-12T04:17:20.706Z,0
2018-12-12T04:18:28.746Z,0
2018-12-12T04:19:36.801Z,0
2018-12-12T04:20:44.835Z,0
2018-12-12T04:21:52.898Z,0
2018-12-12T04:23:00.943Z,0
2018-12-12T04:24:08.988Z,0
2018-12-12T04:25:17.050Z,0
2018-12-12T04:26:25.075Z,0
2018-12-12T04:27:33.133Z,0
2018-12-12T04:28:41.190Z,0
2018-12-12T04:29:49.256Z,0
2018-12-12T04:30:57.303Z,0
2018-12-12T04:32:05.324Z,0
2018-12-12T04:33:13.390Z,0
2018-12-12T04:34:21.440Z,0
2018-12-12T04:35:29.521Z,0
2018-12-12T04:36:37.550Z,0
2018-12-12T04:37:45.572Z,0
2018-12-12T04:38:53.652Z,0
2018-12-12T04:40:01.729Z,0
2018-12-12T04:41:09.756Z,0
2018-12-12T04:42:17.804Z,0
2018-12-12T04:43:25.839Z,0
2018-12-12T04:44:33.897Z,0
2018-12-12T04:45:41.953Z,0
2018-12-12T04:46:50.014Z,0
2018-12-12T04:47:58.061Z,0
2018-12-12T04:49:06.094Z,0
2018-12-12T04:50:14.166Z,0
2018-12-12T04:51:22.198Z,0
2018-12-12T04:52:30.247Z,0
2018-12-12T04:53:38.309Z,0
2018-12-12T04:54:46.364Z,0
2018-12-12T04:55:54.407Z,0
2018-12-12T04:57:02.474Z,0
2018-12-12T04:58:10.506Z,0
2018-12-12T04:59:18.557Z,0
2018-12-12T05:00:26.612Z,0
2018-12-12T05:01:34.669Z,0
2018-12-12T05:02:42.726Z,0
2018-12-12T05:03:50.769Z,0
2018-12-12T05:04:58.810Z,0
2018-12-12T05:06:06.858Z,0
2018-12-12T05:07:14.892Z,0
2018-12-12T05:08:22.972Z,0
2018-12-12T05:09:31.005Z,0
2018-12-12T05:10:39.057Z,0
2018-12-12T05:11:47.117Z,0
2018-12-12T05:12:55.160Z,0
2018-12-12T05:14:03.225Z,0
2018-12-12T05:15:11.271Z,0
2018-12-12T05:16:19.302Z,0
2018-12-12T05:17:27.363Z,0
2018-12-12T05:18:35.397Z,0
2018-12-12T05:19:43.472Z,0
2018-12-12T05:20:51.507Z,0
2018-12-12T05:21:59.570Z,0
2018-12-12T05:23:07.626Z,0
2018-12-12T05:24:15.662Z,0
2018-12-12T05:25:23.753Z,0
2018-12-12T05:26:31.771Z,0
2018-12-12T05:27:39.829Z,0
2018-12-12T05:28:47.938Z,0
2018-12-12T05:29:55.923Z,0
2018-12-12T05:31:03.974Z,0
2018-12-12T05:32:12.022Z,0
2018-12-12T05:33:20.067Z,0
2018-12-12T05:34:28.130Z,0
2018-12-12T05:35:36.172Z,0
2018-12-12T05:36:44.227Z,0
2018-12-12T05:37:52.403Z,0
2018-12-12T05:39:00.336Z,0
2018-12-12T05:40:08.380Z,0
2018-12-12T05:41:16.428Z,0
2018-12-12T05:42:24.484Z,0
2018-12-12T05:43:32.532Z,0
2018-12-12T05:44:40.589Z,0
2018-12-12T05:45:50.326Z,0
2018-12-12T05:46:56.686Z,0
2018-12-12T05:48:04.734Z,0
2018-12-12T05:49:12.790Z,0
2018-12-12T05:50:20.833Z,0
2018-12-12T05:51:28.881Z,0
2018-12-12T05:52:37.326Z,0
2018-12-12T05:53:45.479Z,0
2018-12-12T05:54:53.030Z,0
2018-12-12T05:56:02.517Z,0
2018-12-12T05:57:09.151Z,0
2018-12-12T05:58:17.194Z,0
2018-12-12T05:59:27.570Z,0
2018-12-12T06:00:33.331Z,0
2018-12-12T06:01:41.340Z,0
2018-12-12T06:02:49.388Z,0
2018-12-12T06:03:57.506Z,0
2018-12-12T06:05:05.472Z,0
2018-12-12T06:06:13.869Z,0
2018-12-12T06:07:21.583Z,0
2018-12-12T06:08:29.654Z,0
2018-12-12T06:09:37.697Z,0
2018-12-12T06:10:45.729Z,0
2018-12-12T06:11:53.801Z,0
2018-12-12T06:13:01.856Z,0
2018-12-12T06:14:09.886Z,0
2018-12-12T06:15:17.954Z,0
2018-12-12T06:16:26.106Z,0
2018-12-12T06:17:34.050Z,0
2018-12-12T06:18:42.102Z,0
2018-12-12T06:19:50.159Z,0
2018-12-12T06:20:58.191Z,0
2018-12-12T06:22:06.257Z,0
2018-12-12T06:23:14.316Z,0
2018-12-12T06:24:22.358Z,0
2018-12-12T06:25:30.415Z,0
2018-12-12T06:26:38.468Z,0
2018-12-12T06:27:46.514Z,0
2018-12-12T06:28:54.575Z,0
2018-12-12T06:30:02.611Z,4
2018-12-12T06:31:10.662Z,0
2018-12-12T06:32:18.713Z,4
2018-12-12T06:33:26.774Z,0
2018-12-12T06:34:34.811Z,4
2018-12-12T06:35:43.023Z,4
2018-12-12T06:36:50.913Z,4
2018-12-12T06:37:58.967Z,8
2018-12-12T06:39:07.430Z,12
2018-12-12T06:40:15.036Z,8
2018-12-12T06:41:23.121Z,16
2018-12-12T06:42:31.164Z,16
2018-12-12T06:43:39.216Z,20
2018-12-12T06:44:47.312Z,24
2018-12-12T06:45:55.299Z,28
2018-12-12T06:47:03.743Z,36
2018-12-12T06:48:11.429Z,40
2018-12-12T06:49:19.479Z,48
2018-12-12T06:50:27.526Z,56
2018-12-12T06:51:35.543Z,64
2018-12-12T06:52:43.648Z,76
2018-12-12T06:53:51.671Z,84
2018-12-12T06:54:59.718Z,96
2018-12-12T06:56:07.780Z,112
2018-12-12T06:57:15.826Z,124
2018-12-12T06:58:23.894Z,140
2018-12-12T06:59:31.923Z,156
2018-12-12T07:00:39.977Z,176
2018-12-12T07:01:48.024Z,192
2018-12-12T07:02:56.086Z,216
2018-12-12T07:04:04.136Z,236
2018-12-12T07:05:12.186Z,260
2018-12-12T07:06:20.225Z,288
2018-12-12T07:07:28.967Z,312
2018-12-12T07:08:36.324Z,336
2018-12-12T07:09:44.411Z,364
2018-12-12T07:10:52.435Z,392
2018-12-12T07:12:00.474Z,424
2018-12-12T07:13:08.527Z,452
2018-12-12T07:14:16.579Z,484
2018-12-12T07:15:26.978Z,512
2018-12-12T07:16:33.101Z,540
2018-12-12T07:17:41.076Z,572
2018-12-12T07:18:48.778Z,604
2018-12-12T07:19:57.035Z,636
2018-12-12T07:21:05.541Z,664
2018-12-12T07:22:12.938Z,696
2018-12-12T07:23:20.969Z,728
2018-12-12T07:24:29.032Z,760
2018-12-12T07:25:37.088Z,792
2018-12-12T07:26:45.106Z,824
2018-12-12T07:27:53.207Z,856
2018-12-12T07:29:01.306Z,888
2018-12-12T07:30:09.289Z,916
2018-12-12T07:31:17.354Z,948
2018-12-12T07:32:25.938Z,980
2018-12-12T07:33:33.452Z,1008
2018-12-12T07:34:43.941Z,1040
2018-12-12T07:35:49.535Z,1072
2018-12-12T07:36:57.605Z,1100
2018-12-12T07:38:05.628Z,1136
2018-12-12T07:39:17.814Z,1168
2018-12-12T07:40:21.746Z,1196
2018-12-12T07:41:29.790Z,1228
2018-12-12T07:42:37.840Z,1260
2018-12-12T07:43:45.892Z,1292
2018-12-12T07:44:53.939Z,1320
2018-12-12T07:46:01.994Z,1348
2018-12-12T07:47:10.056Z,1368
2018-12-12T07:48:18.115Z,1396
2018-12-12T07:49:26.145Z,1424
2018-12-12T07:50:34.242Z,1444
2018-12-12T07:51:42.240Z,1468
2018-12-12T07:52:50.304Z,1492
2018-12-12T07:53:58.352Z,1520
2018-12-12T07:55:06.438Z,1548
2018-12-12T07:56:14.455Z,1564
2018-12-12T07:57:22.508Z,1592
2018-12-12T07:58:30.543Z,1612
2018-12-12T07:59:38.600Z,1644
2018-12-12T08:00:46.663Z,1664
2018-12-12T08:01:54.710Z,1676
2018-12-12T08:03:05.592Z,1700
2018-12-12T08:04:10.800Z,1720
2018-12-12T08:05:18.866Z,1744
2018-12-12T08:06:26.905Z,1772
2018-12-12T08:07:34.937Z,1796
2018-12-12T08:08:43.004Z,1824
2018-12-12T08:09:51.057Z,1856
2018-12-12T08:10:59.115Z,1944
2018-12-12T08:12:07.160Z,1916
2018-12-12T08:13:15.184Z,1916
2018-12-12T08:14:23.258Z,1936
2018-12-12T08:15:31.319Z,1944
2018-12-12T08:16:39.369Z,1956
2018-12-12T08:17:47.416Z,1976
2018-12-12T08:18:55.431Z,2004
2018-12-12T08:20:03.504Z,2052
2018-12-12T08:21:11.575Z,2112
2018-12-12T08:22:19.631Z,2140
2018-12-12T08:23:27.678Z,2132
2018-12-12T08:24:35.768Z,2148
2018-12-12T08:25:43.771Z,2160
2018-12-12T08:26:51.836Z,2232
2018-12-12T08:27:59.888Z,2412
2018-12-12T08:29:07.934Z,2504
2018-12-12T08:30:16.020Z,2608
2018-12-12T08:31:24.040Z,3304
2018-12-12T08:32:32.095Z,3956
2018-12-12T08:33:40.131Z,3496
2018-12-12T08:34:48.195Z,3844
2018-12-12T08:35:56.245Z,4288
2018-12-12T08:37:04.288Z,4892
2018-12-12T08:38:12.343Z,5808
2018-12-12T08:39:20.391Z,6332
2018-12-12T08:40:28.444Z,4948
2018-12-12T08:41:36.502Z,3472
2018-12-12T08:42:44.546Z,3588
2018-12-12T08:43:52.607Z,3440
2018-12-12T08:45:00.727Z,3240
2018-12-12T08:46:08.713Z,3396
2018-12-12T08:47:16.757Z,4092
2018-12-12T08:48:24.802Z,4312
2018-12-12T08:49:32.862Z,3404
2018-12-12T08:50:40.936Z,4180
2018-12-12T08:51:48.977Z,4764
2018-12-12T08:52:57.030Z,4572
2018-12-12T08:54:05.073Z,4544
2018-12-12T08:55:17.549Z,4792
2018-12-12T08:56:21.515Z,5588
2018-12-12T08:57:29.262Z,5268
2018-12-12T08:58:37.374Z,5004
2018-12-12T08:59:45.345Z,5028
2018-12-12T09:00:53.411Z,5152
2018-12-12T09:02:01.466Z,5156
2018-12-12T09:03:09.532Z,5020
2018-12-12T09:04:17.793Z,5400
2018-12-12T09:05:25.609Z,5520
2018-12-12T09:06:33.671Z,5356
2018-12-12T09:07:41.920Z,5156
2018-12-12T09:08:49.770Z,4640
2018-12-12T09:09:57.839Z,3772
2018-12-12T09:11:06.336Z,3844
2018-12-12T09:12:13.936Z,3820
2018-12-12T09:13:22.695Z,3744
2018-12-12T09:14:30.051Z,3700
2018-12-12T09:15:38.101Z,3820
2018-12-12T09:16:46.175Z,3896
2018-12-12T09:17:54.224Z,4016
2018-12-12T09:19:02.269Z,4444
2018-12-12T09:20:10.800Z,4176
2018-12-12T09:21:18.369Z,4080
2018-12-12T09:22:26.430Z,4488
2018-12-12T09:23:34.507Z,4516
2018-12-12T09:24:43.071Z,4388
2018-12-12T09:25:50.855Z,4504
2018-12-12T09:26:58.663Z,4568
2018-12-12T09:28:06.708Z,4904
2018-12-12T09:29:14.994Z,5392
2018-12-12T09:30:23.041Z,5108
2018-12-12T09:31:31.287Z,5032
2018-12-12T09:32:38.922Z,4896
2018-12-12T09:33:47.024Z,4796
2018-12-12T09:34:55.018Z,4496
2018-12-12T09:36:03.069Z,4056
2018-12-12T09:37:11.126Z,4332
2018-12-12T09:38:19.193Z,4436
2018-12-12T09:39:27.714Z,4804
2018-12-12T09:40:35.286Z,5412
2018-12-12T09:41:43.532Z,5868
2018-12-12T09:42:51.509Z,5828
2018-12-12T09:43:59.733Z,5672
2018-12-12T09:45:07.807Z,5864
2018-12-12T09:46:15.544Z,5748
2018-12-12T09:47:23.691Z,5352
2018-12-12T09:48:31.705Z,5164
2018-12-12T09:49:39.735Z,5364
2018-12-12T09:50:48.241Z,5180
2018-12-12T09:51:56.038Z,4800
2018-12-12T09:53:04.364Z,4756
2018-12-12T09:54:12.110Z,4848
2018-12-12T09:55:20.076Z,4612
2018-12-12T09:56:28.494Z,4412
2018-12-12T09:57:36.132Z,4280
2018-12-12T09:58:44.526Z,4356
2018-12-12T09:59:52.218Z,4544
2018-12-12T10:01:00.377Z,4828
2018-12-12T10:02:08.598Z,4964
2018-12-12T10:03:16.906Z,5132
2018-12-12T10:04:24.506Z,5196
2018-12-12T10:05:32.922Z,5424
2018-12-12T10:06:41.027Z,5480
2018-12-12T10:07:48.625Z,5364
2018-12-12T10:08:57.615Z,5320
2018-12-12T10:10:05.198Z,5080
2018-12-12T10:13:40.597Z,4408
2018-12-12T10:13:43.844Z,4228
2018-12-12T10:14:36.922Z,4264
2018-12-12T10:15:45.023Z,4328
2018-12-12T10:16:53.234Z,4304
2018-12-12T10:18:01.138Z,4388
2018-12-12T10:19:09.271Z,4516
2018-12-12T10:20:17.215Z,4816
2018-12-12T10:21:25.239Z,5040
2018-12-12T10:22:33.347Z,4980
2018-12-12T10:23:41.639Z,4812
2018-12-12T10:24:49.619Z,4856
2018-12-12T10:25:57.600Z,4664
2018-12-12T10:27:05.789Z,4708
2018-12-12T10:28:13.998Z,4928
2018-12-12T10:29:21.717Z,5040
2018-12-12T10:30:29.754Z,5384
2018-12-12T10:31:37.874Z,5212
2018-12-12T10:32:45.801Z,5132
2018-12-12T10:33:53.854Z,4860
2018-12-12T10:35:01.928Z,5180
2018-12-12T10:36:09.956Z,5168
2018-12-12T10:37:18.042Z,5240
2018-12-12T10:38:26.102Z,5320
2018-12-12T10:39:34.141Z,5428
2018-12-12T10:40:42.215Z,5104
2018-12-12T10:41:50.401Z,5528
2018-12-12T10:42:58.526Z,5772
2018-12-12T10:44:06.351Z,5816
2018-12-12T10:45:14.525Z,5700
2018-12-12T10:46:22.737Z,5876
2018-12-12T10:47:30.549Z,5792
2018-12-12T10:48:38.794Z,5844
2018-12-12T10:49:46.645Z,5880
2018-12-12T10:50:54.687Z,6144
2018-12-12T10:52:03.255Z,6140
2018-12-12T10:53:11.270Z,6196
2018-12-12T10:54:20.689Z,6020
2018-12-12T10:55:26.927Z,5968
2018-12-12T10:56:35.220Z,5924
2018-12-12T10:57:43.032Z,5872
2018-12-12T10:58:51.147Z,5928
2018-12-12T10:59:59.142Z,6008
2018-12-12T11:01:07.553Z,5680
2018-12-12T11:02:15.239Z,5672
2018-12-12T11:03:23.321Z,5948
2018-12-12T11:04:31.833Z,6020
2018-12-12T11:05:39.461Z,5984
2018-12-12T11:06:47.650Z,5944
2018-12-12T11:07:55.546Z,6144
2018-12-12T11:09:04.077Z,6264
2018-12-12T11:10:11.670Z,5928
2018-12-12T11:11:20.553Z,5736
2018-12-12T11:12:28.005Z,6036
2018-12-12T11:13:35.809Z,5968
2018-12-12T11:14:43.871Z,5904
2018-12-12T11:15:51.922Z,5724
2018-12-12T11:16:59.969Z,5624
2018-12-12T11:18:08.440Z,5736
2018-12-12T11:19:16.102Z,5748
2018-12-12T11:20:24.145Z,5800
2018-12-12T11:21:32.204Z,5620
2018-12-12T11:22:40.262Z,5404
2018-12-12T11:23:48.627Z,5512
2018-12-12T11:24:56.378Z,5436
2018-12-12T11:26:05.103Z,5184
2018-12-12T11:27:12.494Z,5280
2018-12-12T11:28:20.649Z,5096
2018-12-12T11:29:28.626Z,4776
2018-12-12T11:30:36.772Z,4884
2018-12-12T11:31:44.899Z,5020
2018-12-12T11:32:52.854Z,5184
2018-12-12T11:34:01.334Z,5328
2018-12-12T11:35:08.912Z,4996
2018-12-12T11:36:17.167Z,4932
2018-12-12T11:37:24.999Z,5300
2018-12-12T11:38:33.125Z,5292
2018-12-12T11:39:41.110Z,5016
2018-12-12T11:40:49.161Z,5324
2018-12-12T11:41:57.214Z,5200
2018-12-12T11:43:05.267Z,5152
2018-12-12T11:44:13.340Z,5180
2018-12-12T11:45:21.389Z,5560
2018-12-12T11:46:29.439Z,5640
2018-12-12T11:47:37.514Z,6108
2018-12-12T11:48:45.549Z,5748
2018-12-12T11:49:53.613Z,5660
2018-12-12T11:51:01.697Z,6012
2018-12-12T11:52:09.741Z,5684
2018-12-12T11:53:17.783Z,5692
2018-12-12T11:54:25.834Z,5320
2018-12-12T11:55:33.893Z,5000
2018-12-12T11:56:41.936Z,5096
2018-12-12T11:57:50.009Z,4972
2018-12-12T11:58:58.064Z,4112
2018-12-12T12:00:06.110Z,3728
2018-12-12T12:01:14.182Z,3636
2018-12-12T12:02:22.244Z,3864
2018-12-12T12:03:30.297Z,3932
2018-12-12T12:04:38.370Z,3940
2018-12-12T12:05:46.404Z,3660
2018-12-12T12:06:54.466Z,3452
2018-12-12T12:08:02.519Z,3028
2018-12-12T12:09:10.592Z,2972
2018-12-12T12:10:19.131Z,2612
2018-12-12T12:11:26.688Z,2700
2018-12-12T12:12:34.747Z,2608
2018-12-12T12:13:42.802Z,3072
2018-12-12T12:14:50.909Z,2820
2018-12-12T12:16:00.362Z,3004
2018-12-12T12:17:06.961Z,3284
2018-12-12T12:18:15.390Z,4352
2018-12-12T12:19:23.282Z,3780
2018-12-12T12:20:31.139Z,3412
2018-12-12T12:21:39.392Z,3640
2018-12-12T12:22:47.281Z,3856
2018-12-12T12:23:55.273Z,3912
2018-12-12T12:25:03.367Z,3480
2018-12-12T12:26:11.860Z,3392
2018-12-12T12:27:19.493Z,3260
2018-12-12T12:28:27.524Z,3060
2018-12-12T12:29:35.561Z,3656
2018-12-12T12:30:43.622Z,3912
2018-12-12T12:31:51.695Z,3472
2018-12-12T12:32:59.996Z,3672
2018-12-12T12:34:07.939Z,4304
2018-12-12T12:35:16.163Z,3672
2018-12-12T12:36:24.202Z,3976
2018-12-12T12:37:31.958Z,3680
2018-12-12T12:38:40.164Z,4548
2018-12-12T12:39:48.461Z,4380
2018-12-12T12:40:56.122Z,4252
2018-12-12T12:42:04.186Z,4060
2018-12-12T12:43:12.242Z,3716
2018-12-12T12:44:20.336Z,3688
2018-12-12T12:45:29.242Z,3740
2018-12-12T12:46:36.427Z,3216
2018-12-12T12:47:44.467Z,3052
2018-12-12T12:48:52.576Z,3372
2018-12-12T12:50:00.698Z,3900
2018-12-12T12:51:08.646Z,3132
2018-12-12T12:52:16.964Z,3032
2018-12-12T12:53:24.815Z,3152
2018-12-12T12:54:32.800Z,3372
2018-12-12T12:55:40.838Z,2720
2018-12-12T12:56:48.898Z,2504
2018-12-12T12:57:56.956Z,2580
2018-12-12T12:59:04.997Z,2608
2018-12-12T13:00:13.076Z,2940
2018-12-12T13:01:21.132Z,2760
2018-12-12T13:02:29.181Z,2976
2018-12-12T13:03:37.246Z,2992
2018-12-12T13:04:45.269Z,2648
2018-12-12T13:05:53.391Z,2672
2018-12-12T13:07:01.417Z,2504
2018-12-12T13:08:09.459Z,2480
2018-12-12T13:09:17.518Z,2460
2018-12-12T13:10:25.591Z,2548
2018-12-12T13:11:33.639Z,2332
2018-12-12T13:12:41.676Z,2260
2018-12-12T13:13:49.737Z,2440
2018-12-12T13:14:57.787Z,2696
2018-12-12T13:16:05.837Z,2336
2018-12-12T13:17:13.899Z,2680
2018-12-12T13:18:21.976Z,2424
2018-12-12T13:19:30.004Z,2332
2018-12-12T13:20:38.056Z,2544
2018-12-12T13:21:46.111Z,2432
2018-12-12T13:22:54.186Z,2388
2018-12-12T13:24:02.208Z,2160
2018-12-12T13:25:10.282Z,2272
2018-12-12T13:26:18.342Z,2084
2018-12-12T13:27:26.402Z,2096
2018-12-12T13:28:34.441Z,2072
2018-12-12T13:29:42.498Z,2276
2018-12-12T13:30:50.545Z,2272
2018-12-12T13:31:58.623Z,2264
2018-12-12T13:33:06.662Z,2248
2018-12-12T13:34:16.318Z,2240
2018-12-12T13:35:22.763Z,2228
2018-12-12T13:36:30.835Z,2216
2018-12-12T13:37:38.890Z,2204
2018-12-12T13:38:46.951Z,2200
2018-12-12T13:39:54.976Z,2204
2018-12-12T13:41:03.050Z,2188
2018-12-12T13:42:11.111Z,2184
2018-12-12T13:43:19.152Z,2172
2018-12-12T13:44:27.229Z,2172
2018-12-12T13:45:35.247Z,2160
2018-12-12T13:46:43.325Z,2172
2018-12-12T13:47:51.392Z,2132
2018-12-12T13:48:59.421Z,2124
2018-12-12T13:50:07.488Z,2116
2018-12-12T13:51:15.527Z,2116
2018-12-12T13:52:23.586Z,2108
2018-12-12T13:53:31.646Z,2104
2018-12-12T13:54:39.732Z,2080
2018-12-12T13:55:47.757Z,2064
2018-12-12T13:56:55.797Z,2080
2018-12-12T13:58:03.857Z,2048
2018-12-12T13:59:11.911Z,2036
2018-12-12T14:00:19.981Z,2032
2018-12-12T14:01:28.024Z,2012
2018-12-12T14:02:36.098Z,2000
2018-12-12T14:03:44.134Z,1988
2018-12-12T14:04:52.191Z,1972
2018-12-12T14:06:00.236Z,1992
2018-12-12T14:07:08.295Z,1956
2018-12-12T14:08:16.348Z,1944
2018-12-12T14:09:24.412Z,1932
2018-12-12T14:10:32.577Z,1920
2018-12-12T14:11:40.527Z,1912
2018-12-12T14:12:48.572Z,1888
2018-12-12T14:13:56.629Z,1876
2018-12-12T14:15:04.709Z,1864
2018-12-12T14:16:12.729Z,1852
2018-12-12T14:17:20.795Z,1836
2018-12-12T14:18:28.835Z,1820
2018-12-12T14:19:36.901Z,1812
2018-12-12T14:20:44.929Z,1804
2018-12-12T14:21:53.011Z,1792
2018-12-12T14:23:01.048Z,1780
2018-12-12T14:24:09.113Z,1764
2018-12-12T14:25:17.172Z,1740
2018-12-12T14:26:25.229Z,1724
2018-12-12T14:27:38.697Z,1700
2018-12-12T14:28:41.328Z,1680
2018-12-12T14:29:49.375Z,1656
2018-12-12T14:30:57.433Z,1636
2018-12-12T14:32:05.482Z,1616
2018-12-12T14:33:13.533Z,1596
2018-12-12T14:34:21.629Z,1572
2018-12-12T14:35:29.666Z,1548
2018-12-12T14:36:37.693Z,1528
2018-12-12T14:37:45.750Z,1500
2018-12-12T14:38:53.804Z,1476
2018-12-12T14:40:01.872Z,1456
2018-12-12T14:41:09.925Z,1424
2018-12-12T14:42:17.976Z,1400
2018-12-12T14:43:26.027Z,1372
2018-12-12T14:44:34.094Z,1344
2018-12-12T14:45:42.140Z,1320
2018-12-12T14:46:50.201Z,1292
2018-12-12T14:47:58.256Z,1268
2018-12-12T14:49:06.296Z,1244
2018-12-12T14:50:14.353Z,1220
2018-12-12T14:51:22.415Z,1196
2018-12-12T14:52:30.472Z,1172
2018-12-12T14:53:38.527Z,1148
2018-12-12T14:54:46.576Z,1128
2018-12-12T14:55:54.633Z,1104
2018-12-12T14:57:02.690Z,1080
2018-12-12T14:58:10.734Z,1056
2018-12-12T14:59:18.795Z,1032
2018-12-12T15:00:26.841Z,1004
2018-12-12T15:01:34.881Z,972
2018-12-12T15:02:42.934Z,948
2018-12-12T15:03:50.999Z,920
2018-12-12T15:04:59.058Z,892
2018-12-12T15:06:07.113Z,864
2018-12-12T15:07:15.161Z,832
2018-12-12T15:08:23.224Z,808
2018-12-12T15:09:31.284Z,776
2018-12-12T15:10:39.326Z,748
2018-12-12T15:11:47.386Z,716
2018-12-12T15:12:55.426Z,688
2018-12-12T15:14:03.501Z,656
2018-12-12T15:15:11.535Z,628
2018-12-12T15:16:19.611Z,596
2018-12-12T15:17:27.639Z,560
2018-12-12T15:18:35.676Z,532
2018-12-12T15:19:43.766Z,504
2018-12-12T15:20:51.802Z,476
2018-12-12T15:21:59.842Z,444
2018-12-12T15:23:07.904Z,416
2018-12-12T15:24:15.970Z,388
2018-12-12T15:25:24.031Z,360
2018-12-12T15:26:32.067Z,332
2018-12-12T15:27:40.110Z,304
2018-12-12T15:28:48.244Z,280
2018-12-12T15:29:56.224Z,256
2018-12-12T15:31:04.291Z,232
2018-12-12T15:32:12.336Z,208
2018-12-12T15:33:20.388Z,188
2018-12-12T15:34:28.434Z,168
2018-12-12T15:35:36.494Z,152
2018-12-12T15:36:44.550Z,132
2018-12-12T15:37:52.614Z,120
2018-12-12T15:39:00.642Z,104
2018-12-12T15:40:08.697Z,92
2018-12-12T15:41:16.756Z,80
2018-12-12T15:42:24.801Z,68
2018-12-12T15:43:32.853Z,56
2018-12-12T15:44:40.925Z,48
2018-12-12T15:45:48.978Z,40
2018-12-12T15:46:57.015Z,36
2018-12-12T15:48:05.072Z,28
2018-12-12T15:49:13.123Z,24
2018-12-12T15:50:21.188Z,20
2018-12-12T15:51:29.246Z,16